Buen Pasto, Argentina
Current Conditions -  °F | °C
As of 3:00 PM on Thursday 30 Oct 2014 (Local Time) from SAVC Reporting Station
Snow Showers Snow Showers  
Wind Chill: 37°   Ceiling: Unl
Heat Index: 45°   Visibility: 6mi
Dew Point: 21°   Wind: 20mph
Humidity: 39%   Direction: 230°SW
Pressure: 29.53"   Gusts: NA
Location:  45.08°S, 69.47°W
Report Text: SAVC 301800Z 23017KT 200V310 9999 -SHSGFEW025TCU SCT200 07/M06 Q1000
Loading
Personal Weather Stations






























Interactive Weather Map
Tropical Storm Tracking
New forecast layout! Learn more

10-Day Weather Forecast

Advertisements
Track Severe Weather on mobile